Time;durP1;ratioP1;P1;durP2;ratioP2;P2;SDS_P1;SDS_P2;PMS_P1;PMS_P2;Temp;Humidity;BMP_temperature;BMP_pressure;BME280_temperature;BME280_humidity;BME280_pressure;Samples;Min_cycle;Max_cycle;Signal;HPM_P1;HPM_P2
2022/05/16 00:02:27;;;;;;;8.30;3.58;;;;;;;;;;5048081;28;20041;-67
2022/05/16 00:04:57;;;;;;;8.73;4.05;;;;;;;;;;5051849;28;20044;-66
2022/05/16 00:07:28;;;;;;;8.05;3.63;;;;;;;;;;5034343;28;20053;-67
2022/05/16 00:10:00;;;;;;;8.88;4.18;;;;;;;;;;5053830;28;20631;-67
2022/05/16 00:12:30;;;;;;;8.05;4.40;;;;;;;;;;5053012;28;20396;-66
2022/05/16 00:15:01;;;;;;;11.23;4.32;;;;;;;;;;5053584;28;20051;-66
2022/05/16 00:17:32;;;;;;;10.32;4.75;;;;;;;;;;5034931;28;20067;-68
2022/05/16 00:20:03;;;;;;;7.32;3.67;;;;;;;;;;5050733;28;20049;-66
2022/05/16 00:22:35;;;;;;;9.60;5.03;;;;;;;;;;5051153;28;20060;-67
2022/05/16 00:25:09;;;;;;;11.27;4.75;;;;;;;;;;5051070;28;20117;-67
2022/05/16 00:27:40;;;;;;;13.73;5.13;;;;;;;;;;5001832;28;20527;-67
2022/05/16 00:30:13;;;;;;;11.88;6.30;;;;;;;;;;5017625;28;20390;-68
2022/05/16 00:32:45;;;;;;;9.85;4.50;;;;;;;;;;5050741;28;20138;-68
2022/05/16 00:35:20;;;;;;;10.05;4.60;;;;;;;;;;5066997;28;20067;-67
2022/05/16 00:37:51;;;;;;;11.70;4.72;;;;;;;;;;5050824;28;20096;-67
2022/05/16 00:40:22;;;;;;;11.05;4.50;;;;;;;;;;5050572;28;20061;-67
2022/05/16 00:43:05;;;;;;;10.57;5.50;;;;;;;;;;5034475;28;20052;-68
2022/05/16 00:45:36;;;;;;;10.98;4.65;;;;;;;;;;5050538;28;20056;-67
2022/05/16 00:48:08;;;;;;;12.63;5.32;;;;;;;;;;5050670;28;20044;-68
2022/05/16 00:50:40;;;;;;;13.38;5.47;;;;;;;;;;5050465;28;20460;-67
2022/05/16 00:53:11;;;;;;;14.35;4.95;;;;;;;;;;5034228;28;20049;-68
2022/05/16 00:55:42;;;;;;;13.70;4.93;;;;;;;;;;5050341;28;20044;-68
2022/05/16 00:58:19;;;;;;;12.27;5.28;;;;;;;;;;5051866;28;20060;-67
2022/05/16 01:00:52;;;;;;;13.60;6.00;;;;;;;;;;5035336;28;20405;-68
2022/05/16 01:06:12;;;;;;;13.02;5.57;;;;;;;;;;4981098;28;20053;-67
2022/05/16 01:08:43;;;;;;;13.73;5.63;;;;;;;;;;5010139;28;20053;-67
2022/05/16 01:11:15;;;;;;;10.77;5.07;;;;;;;;;;5010060;28;20060;-67
2022/05/16 01:13:45;;;;;;;10.38;4.93;;;;;;;;;;5010393;28;20058;-67
2022/05/16 01:16:16;;;;;;;14.68;5.50;;;;;;;;;;5010245;28;20076;-67
2022/05/16 01:18:47;;;;;;;11.23;5.25;;;;;;;;;;5010020;28;20053;-67
2022/05/16 01:21:36;;;;;;;15.88;5.82;;;;;;;;;;5010097;28;20113;-67
2022/05/16 01:24:14;;;;;;;13.95;5.10;;;;;;;;;;5010027;28;20057;-67
2022/05/16 01:26:45;;;;;;;14.02;5.30;;;;;;;;;;4994489;28;20097;-68
2022/05/16 01:29:16;;;;;;;13.57;5.60;;;;;;;;;;5009909;28;20052;-67
2022/05/16 01:31:47;;;;;;;12.00;5.32;;;;;;;;;;5010224;28;20042;-68
2022/05/16 01:34:18;;;;;;;15.38;6.15;;;;;;;;;;4970568;28;20069;-67
2022/05/16 01:36:48;;;;;;;11.65;5.38;;;;;;;;;;4970784;28;20059;-67
2022/05/16 01:39:19;;;;;;;16.80;6.03;;;;;;;;;;4970689;28;20058;-67
2022/05/16 01:41:50;;;;;;;12.45;5.70;;;;;;;;;;4970038;28;20046;-67
2022/05/16 01:44:20;;;;;;;12.15;4.72;;;;;;;;;;4947810;29;20058;-66
2022/05/16 01:46:52;;;;;;;14.55;5.40;;;;;;;;;;4955433;28;20094;-66
2022/05/16 01:49:22;;;;;;;13.45;5.45;;;;;;;;;;4937834;28;20067;-66
2022/05/16 01:51:53;;;;;;;11.80;5.35;;;;;;;;;;4970263;28;20816;-67
2022/05/16 01:54:23;;;;;;;8.40;3.65;;;;;;;;;;4970403;28;20054;-66
2022/05/16 01:56:54;;;;;;;10.55;5.20;;;;;;;;;;4970359;28;20065;-66
2022/05/16 01:59:25;;;;;;;11.00;4.50;;;;;;;;;;4937980;28;20053;-66
2022/05/16 02:01:55;;;;;;;11.90;4.35;;;;;;;;;;4922691;28;20131;-66
2022/05/16 02:04:26;;;;;;;10.23;4.45;;;;;;;;;;4970524;28;20055;-66
2022/05/16 02:06:57;;;;;;;9.80;4.40;;;;;;;;;;4954676;28;20055;-66
2022/05/16 02:09:28;;;;;;;11.35;4.95;;;;;;;;;;4912410;29;20063;-65
2022/05/16 02:11:59;;;;;;;10.02;4.82;;;;;;;;;;4932882;29;20047;-66
2022/05/16 02:14:29;;;;;;;9.40;3.95;;;;;;;;;;4919314;29;20055;-66
2022/05/16 02:17:00;;;;;;;8.90;4.30;;;;;;;;;;4915076;29;20095;-66
2022/05/16 02:19:31;;;;;;;10.05;4.80;;;;;;;;;;4931623;29;20062;-66
2022/05/16 02:24:50;;;;;;;11.57;4.18;;;;;;;;;;4969821;28;20058;-66
2022/05/16 02:27:20;;;;;;;9.95;4.38;;;;;;;;;;4969591;28;20059;-66
2022/05/16 02:29:51;;;;;;;9.13;4.10;;;;;;;;;;4969934;28;20070;-66
2022/05/16 02:32:22;;;;;;;10.30;4.65;;;;;;;;;;4970079;28;20047;-66
2022/05/16 02:34:53;;;;;;;12.65;4.75;;;;;;;;;;4969623;28;20062;-66
2022/05/16 02:37:23;;;;;;;9.00;4.22;;;;;;;;;;4969839;28;20055;-67
2022/05/16 02:39:53;;;;;;;11.88;4.00;;;;;;;;;;4969965;28;20530;-67
2022/05/16 02:42:25;;;;;;;9.90;4.47;;;;;;;;;;4969831;28;20058;-66
2022/05/16 02:44:55;;;;;;;10.88;4.32;;;;;;;;;;4952814;28;20062;-66
2022/05/16 02:47:26;;;;;;;10.82;4.22;;;;;;;;;;4988865;28;20050;-66
2022/05/16 02:49:57;;;;;;;12.35;4.60;;;;;;;;;;4972935;28;20446;-66
2022/05/16 02:52:28;;;;;;;10.35;4.18;;;;;;;;;;4992324;28;20054;-66
2022/05/16 02:55:01;;;;;;;10.27;3.90;;;;;;;;;;5048447;28;20064;-66
2022/05/16 02:57:33;;;;;;;12.88;4.00;;;;;;;;;;5048033;28;20440;-67
2022/05/16 03:00:06;;;;;;;8.57;4.32;;;;;;;;;;4998602;28;20060;-66
2022/05/16 03:02:38;;;;;;;9.10;3.78;;;;;;;;;;5032210;28;20053;-67
2022/05/16 03:05:09;;;;;;;8.00;3.88;;;;;;;;;;5008154;28;20073;-66
2022/05/16 03:07:40;;;;;;;8.95;3.35;;;;;;;;;;5007678;28;20072;-66
2022/05/16 03:10:15;;;;;;;10.07;4.28;;;;;;;;;;5008173;28;20190;-66
2022/05/16 03:12:47;;;;;;;8.15;3.42;;;;;;;;;;5008052;28;20395;-66
2022/05/16 03:15:18;;;;;;;8.63;4.65;;;;;;;;;;5008289;28;20164;-66
2022/05/16 03:17:49;;;;;;;7.65;3.42;;;;;;;;;;5008131;28;20061;-66
2022/05/16 03:20:20;;;;;;;7.38;3.25;;;;;;;;;;5008421;28;20058;-66
2022/05/16 03:22:51;;;;;;;10.32;3.90;;;;;;;;;;5008530;28;20062;-66
2022/05/16 03:25:23;;;;;;;10.77;4.22;;;;;;;;;;5008347;28;20054;-66
2022/05/16 03:27:55;;;;;;;9.30;3.13;;;;;;;;;;5008028;28;20050;-66
2022/05/16 03:30:26;;;;;;;8.55;3.05;;;;;;;;;;5008216;28;20058;-66
2022/05/16 03:32:58;;;;;;;7.38;2.67;;;;;;;;;;5008534;28;20434;-66
2022/05/16 03:35:28;;;;;;;6.28;2.00;;;;;;;;;;5008298;28;20061;-66
2022/05/16 03:37:59;;;;;;;4.70;2.10;;;;;;;;;;5008188;28;20054;-66
2022/05/16 03:40:47;;;;;;;4.43;1.95;;;;;;;;;;4995648;28;20054;-66
2022/05/16 03:43:18;;;;;;;3.58;1.70;;;;;;;;;;5040000;28;20056;-65
2022/05/16 03:45:49;;;;;;;4.63;1.92;;;;;;;;;;5051659;28;20435;-66
2022/05/16 03:48:19;;;;;;;4.88;1.88;;;;;;;;;;5018697;28;20448;-66
2022/05/16 03:50:50;;;;;;;4.70;1.70;;;;;;;;;;5035344;28;20052;-66
2022/05/16 03:53:21;;;;;;;4.07;1.58;;;;;;;;;;4998647;28;20502;-66
2022/05/16 03:55:52;;;;;;;5.82;1.70;;;;;;;;;;4991966;28;20546;-66
2022/05/16 03:58:22;;;;;;;4.32;1.73;;;;;;;;;;4978934;28;20057;-66
2022/05/16 04:00:53;;;;;;;4.90;1.38;;;;;;;;;;4972857;28;20054;-66
2022/05/16 04:03:24;;;;;;;3.97;1.67;;;;;;;;;;4986044;28;20415;-66
2022/05/16 04:05:55;;;;;;;4.32;1.50;;;;;;;;;;5011417;28;20510;-66
2022/05/16 04:08:26;;;;;;;6.38;2.13;;;;;;;;;;4978999;28;20062;-67
2022/05/16 04:10:59;;;;;;;5.43;1.90;;;;;;;;;;5011271;28;20050;-66
2022/05/16 04:13:32;;;;;;;3.90;1.50;;;;;;;;;;5011786;28;20045;-66
2022/05/16 04:16:03;;;;;;;4.88;2.35;;;;;;;;;;4998284;28;20540;-66
2022/05/16 04:18:36;;;;;;;6.65;1.98;;;;;;;;;;4991706;28;20050;-66
2022/05/16 04:21:07;;;;;;;4.38;2.00;;;;;;;;;;4955663;28;20051;-66
2022/05/16 04:23:37;;;;;;;4.82;2.15;;;;;;;;;;4940185;28;20427;-66
2022/05/16 04:26:08;;;;;;;5.45;1.83;;;;;;;;;;4972231;28;20610;-67
2022/05/16 04:28:38;;;;;;;5.53;1.80;;;;;;;;;;4972280;28;20050;-66
2022/05/16 04:31:09;;;;;;;5.47;1.75;;;;;;;;;;4982972;28;20550;-66
2022/05/16 04:33:40;;;;;;;5.60;2.40;;;;;;;;;;4991912;28;20062;-66
2022/05/16 04:36:10;;;;;;;4.85;1.95;;;;;;;;;;4991472;28;20054;-66
2022/05/16 04:38:41;;;;;;;6.10;2.08;;;;;;;;;;4991214;28;20410;-66
2022/05/16 04:44:00;;;;;;;6.40;2.40;;;;;;;;;;4942948;28;20584;-67
2022/05/16 04:46:31;;;;;;;4.85;2.03;;;;;;;;;;4991485;28;20065;-66
2022/05/16 04:49:02;;;;;;;6.13;2.30;;;;;;;;;;4959018;28;20046;-66
2022/05/16 04:51:33;;;;;;;6.55;2.00;;;;;;;;;;4988730;28;20050;-66
2022/05/16 04:54:04;;;;;;;4.97;1.88;;;;;;;;;;4991474;28;20057;-66
2022/05/16 04:56:36;;;;;;;4.93;2.50;;;;;;;;;;5033719;28;20064;-66
2022/05/16 04:59:07;;;;;;;6.18;2.42;;;;;;;;;;4991524;28;20060;-66
2022/05/16 05:01:37;;;;;;;7.32;2.47;;;;;;;;;;5032770;28;20109;-66
2022/05/16 05:04:09;;;;;;;6.82;2.00;;;;;;;;;;4997372;28;20042;-66
2022/05/16 05:06:40;;;;;;;5.95;2.08;;;;;;;;;;5030221;28;20065;-66
2022/05/16 05:09:10;;;;;;;5.63;1.80;;;;;;;;;;5030328;28;20533;-66
2022/05/16 05:14:33;;;;;;;6.18;1.80;;;;;;;;;;5030080;28;20057;-66
2022/05/16 05:17:07;;;;;;;4.78;2.13;;;;;;;;;;5030126;28;20667;-67
2022/05/16 05:19:40;;;;;;;4.82;2.08;;;;;;;;;;5030325;28;20046;-66
2022/05/16 05:22:12;;;;;;;6.63;2.05;;;;;;;;;;5030119;28;20057;-66
2022/05/16 05:24:43;;;;;;;;;;;;;;;;;;5030626;28;20045;-66
2022/05/16 05:27:13;;;;;;;5.10;1.70;;;;;;;;;;5029721;28;19921;-66
2022/05/16 05:29:44;;;;;;;6.88;2.35;;;;;;;;;;5013529;28;20049;-66
2022/05/16 05:32:15;;;;;;;5.97;1.98;;;;;;;;;;4970781;28;20070;-66
2022/05/16 05:34:46;;;;;;;4.85;2.08;;;;;;;;;;4923368;28;20055;-66
2022/05/16 05:37:17;;;;;;;5.95;2.05;;;;;;;;;;4971038;28;20054;-66
2022/05/16 05:39:48;;;;;;;5.35;1.80;;;;;;;;;;4971127;28;20059;-66
2022/05/16 05:42:19;;;;;;;7.88;2.53;;;;;;;;;;4984983;28;20054;-67
2022/05/16 05:44:50;;;;;;;4.30;1.83;;;;;;;;;;4990296;28;20069;-67
2022/05/16 05:47:22;;;;;;;4.82;2.22;;;;;;;;;;4990088;28;20057;-66
2022/05/16 05:49:52;;;;;;;4.95;2.17;;;;;;;;;;4938519;28;20059;-66
2022/05/16 05:52:23;;;;;;;5.47;2.03;;;;;;;;;;4970250;28;20075;-66
2022/05/16 05:54:54;;;;;;;3.85;1.67;;;;;;;;;;4970888;28;20058;-69
2022/05/16 05:57:26;;;;;;;6.10;2.03;;;;;;;;;;4969995;28;20050;-71
2022/05/16 06:00:03;;;;;;;4.15;1.80;;;;;;;;;;4970636;28;20803;-69
2022/05/16 06:02:34;;;;;;;5.07;1.88;;;;;;;;;;4969632;28;20057;-70
2022/05/16 06:05:05;;;;;;;3.45;1.25;;;;;;;;;;4970427;28;20054;-72
2022/05/16 06:07:36;;;;;;;6.82;1.67;;;;;;;;;;4986257;28;20063;-71
2022/05/16 06:10:08;;;;;;;4.70;1.70;;;;;;;;;;4981979;28;20503;-71
2022/05/16 06:12:42;;;;;;;5.82;1.80;;;;;;;;;;4989886;28;20046;-73
2022/05/16 06:15:15;;;;;;;5.13;1.30;;;;;;;;;;4989650;28;20050;-70
2022/05/16 06:17:46;;;;;;;3.60;1.48;;;;;;;;;;4989675;28;20450;-70
2022/05/16 06:20:17;;;;;;;4.60;1.40;;;;;;;;;;4989808;28;20062;-68
2022/05/16 06:22:47;;;;;;;3.67;1.48;;;;;;;;;;4989625;28;20062;-68
2022/05/16 06:25:33;;;;;;;3.53;1.58;;;;;;;;;;4989653;28;20494;-68
2022/05/16 06:28:14;;;;;;;4.10;1.65;;;;;;;;;;5019252;28;20081;-68
2022/05/16 06:30:47;;;;;;;4.18;1.40;;;;;;;;;;5028826;28;20113;-68
2022/05/16 06:33:21;;;;;;;3.38;1.55;;;;;;;;;;5029010;28;20137;-68
2022/05/16 06:35:53;;;;;;;5.10;1.63;;;;;;;;;;5030781;28;20057;-68
2022/05/16 06:38:26;;;;;;;5.10;2.05;;;;;;;;;;5031127;28;20044;-68
2022/05/16 06:40:58;;;;;;;3.58;1.42;;;;;;;;;;5031039;28;20037;-67
2022/05/16 06:43:30;;;;;;;4.88;1.70;;;;;;;;;;5031026;28;20481;-67
2022/05/16 06:46:04;;;;;;;;;;;;;;;;;;5031406;28;20048;-66
2022/05/16 06:48:35;;;;;;;5.45;1.60;;;;;;;;;;5031108;28;19920;-69
2022/05/16 06:51:05;;;;;;;4.13;1.70;;;;;;;;;;5031204;28;20049;-68
2022/05/16 06:53:36;;;;;;;9.13;1.80;;;;;;;;;;5030877;28;20045;-67
2022/05/16 06:56:07;;;;;;;4.55;1.60;;;;;;;;;;5030922;28;20042;-68
2022/05/16 06:58:37;;;;;;;3.65;1.42;;;;;;;;;;5045364;28;20053;-68
2022/05/16 07:01:08;;;;;;;4.50;1.80;;;;;;;;;;5030650;28;20056;-67
2022/05/16 07:03:42;;;;;;;5.43;1.50;;;;;;;;;;5028353;28;20049;-68
2022/05/16 07:06:18;;;;;;;4.85;2.13;;;;;;;;;;5028390;28;20061;-67
2022/05/16 07:08:49;;;;;;;4.70;1.33;;;;;;;;;;5028078;28;20501;-67
2022/05/16 07:11:19;;;;;;;3.45;1.42;;;;;;;;;;5011766;28;20747;-66
2022/05/16 07:13:50;;;;;;;5.40;1.70;;;;;;;;;;5030711;28;20060;-67
2022/05/16 07:16:21;;;;;;;4.68;1.67;;;;;;;;;;5032598;28;20116;-67
2022/05/16 07:18:52;;;;;;;3.83;1.90;;;;;;;;;;5032523;28;20082;-67
2022/05/16 07:21:23;;;;;;;3.42;1.35;;;;;;;;;;5032094;28;20050;-66
2022/05/16 07:23:54;;;;;;;3.58;1.48;;;;;;;;;;5016303;28;20452;-67
2022/05/16 07:29:13;;;;;;;4.63;1.60;;;;;;;;;;5032518;28;20162;-67
2022/05/16 07:31:44;;;;;;;4.88;1.92;;;;;;;;;;5032287;28;20533;-67
2022/05/16 07:34:15;;;;;;;4.82;1.50;;;;;;;;;;5031963;28;20078;-67
2022/05/16 07:36:46;;;;;;;5.13;2.28;;;;;;;;;;5031916;28;20522;-67
2022/05/16 07:39:16;;;;;;;5.88;1.95;;;;;;;;;;5016031;28;20465;-67
2022/05/16 07:41:49;;;;;;;4.18;1.67;;;;;;;;;;5046058;28;20061;-67
2022/05/16 07:44:20;;;;;;;3.80;1.60;;;;;;;;;;5051774;28;20049;-67
2022/05/16 07:46:51;;;;;;;4.50;1.63;;;;;;;;;;5039803;28;20727;-67
2022/05/16 07:49:22;;;;;;;6.57;1.73;;;;;;;;;;5034447;28;20052;-67
2022/05/16 07:51:53;;;;;;;3.75;1.92;;;;;;;;;;5034968;28;20049;-67
2022/05/16 07:54:24;;;;;;;4.10;1.73;;;;;;;;;;5034910;28;20148;-67
2022/05/16 07:56:55;;;;;;;5.60;1.63;;;;;;;;;;5051320;28;20393;-67
2022/05/16 07:59:25;;;;;;;4.82;1.42;;;;;;;;;;5051484;28;20045;-67
2022/05/16 08:01:56;;;;;;;3.88;1.58;;;;;;;;;;5051438;28;20061;-67
2022/05/16 08:04:26;;;;;;;4.75;1.63;;;;;;;;;;4998525;28;20060;-67
2022/05/16 08:06:57;;;;;;;5.68;1.85;;;;;;;;;;5031488;28;20061;-67
2022/05/16 08:12:34;;;;;;;4.32;1.42;;;;;;;;;;5031551;28;20468;-67
2022/05/16 08:15:06;;;;;;;5.30;1.85;;;;;;;;;;5031329;28;20049;-67
2022/05/16 08:17:37;;;;;;;3.70;1.40;;;;;;;;;;5031413;28;20057;-67
2022/05/16 08:20:09;;;;;;;5.93;1.40;;;;;;;;;;5031044;28;20053;-67
2022/05/16 08:22:39;;;;;;;3.85;1.50;;;;;;;;;;5030968;28;20057;-66
2022/05/16 08:25:10;;;;;;;4.45;1.85;;;;;;;;;;5030509;28;20054;-66
2022/05/16 08:27:42;;;;;;;4.97;1.60;;;;;;;;;;5015430;28;20046;-66
2022/05/16 08:30:13;;;;;;;5.75;1.48;;;;;;;;;;5030810;28;20045;-66
2022/05/16 08:32:44;;;;;;;4.63;1.33;;;;;;;;;;5031090;28;20053;-66
2022/05/16 08:35:16;;;;;;;6.20;1.27;;;;;;;;;;5014383;28;20080;-66
2022/05/16 08:40:38;;;;;;;2.55;1.10;;;;;;;;;;5031015;28;20053;-66
2022/05/16 08:43:26;;;;;;;3.42;1.38;;;;;;;;;;5031631;28;20050;-66
2022/05/16 08:46:15;;;;;;;4.00;1.27;;;;;;;;;;5033184;28;20044;-66
2022/05/16 08:48:50;;;;;;;4.80;1.65;;;;;;;;;;5033085;28;20052;-66
2022/05/16 08:51:24;;;;;;;6.35;1.30;;;;;;;;;;5033123;28;20049;-66
2022/05/16 08:54:28;;;;;;;4.10;1.60;;;;;;;;;;5033044;28;20049;-66
2022/05/16 08:57:03;;;;;;;3.42;1.25;;;;;;;;;;4997862;28;20052;-66
2022/05/16 08:59:40;;;;;;;5.03;2.33;;;;;;;;;;5030054;28;20061;-66
2022/05/16 09:02:20;;;;;;;5.70;1.58;;;;;;;;;;5030073;28;20509;-66
2022/05/16 09:05:16;;;;;;;5.38;2.30;;;;;;;;;;5030228;28;20691;-66
2022/05/16 09:07:57;;;;;;;3.38;1.40;;;;;;;;;;4971506;28;20503;-66
2022/05/16 09:10:53;;;;;;;3.72;1.35;;;;;;;;;;4923949;28;20050;-66
2022/05/16 09:13:55;;;;;;;2.78;1.08;;;;;;;;;;4971567;28;20059;-66
2022/05/16 09:16:37;;;;;;;3.63;1.35;;;;;;;;;;4923215;29;20541;-66
2022/05/16 09:19:48;;;;;;;3.88;1.40;;;;;;;;;;4970960;28;20053;-66
2022/05/16 09:22:42;;;;;;;4.22;1.35;;;;;;;;;;4955142;28;20055;-66
2022/05/16 09:25:24;;;;;;;4.03;1.73;;;;;;;;;;4971191;28;20054;-66
2022/05/16 09:30:48;;;;;;;4.57;1.70;;;;;;;;;;4965748;28;20047;-66
2022/05/16 09:33:25;;;;;;;5.78;1.48;;;;;;;;;;4969847;28;20059;-66
2022/05/16 09:36:07;;;;;;;3.53;1.63;;;;;;;;;;4963474;28;20055;-67
2022/05/16 09:38:43;;;;;;;4.15;1.95;;;;;;;;;;4950322;28;20423;-67
2022/05/16 09:41:23;;;;;;;5.18;1.45;;;;;;;;;;4934200;28;20051;-66
2022/05/16 09:44:04;;;;;;;4.13;1.80;;;;;;;;;;4950925;28;20052;-66
2022/05/16 09:46:44;;;;;;;3.90;1.55;;;;;;;;;;4994510;28;20054;-67
2022/05/16 09:49:22;;;;;;;5.05;1.48;;;;;;;;;;4939449;28;20058;-66
2022/05/16 09:51:59;;;;;;;9.27;3.70;;;;;;;;;;4958999;28;20049;-66
2022/05/16 09:54:36;;;;;;;7.45;1.90;;;;;;;;;;5022740;28;20060;-67
2022/05/16 09:57:20;;;;;;;5.07;2.00;;;;;;;;;;4989589;28;20053;-66
2022/05/16 09:59:58;;;;;;;8.30;1.60;;;;;;;;;;5029199;28;20061;-66
2022/05/16 10:02:39;;;;;;;7.53;1.83;;;;;;;;;;4998709;28;20564;-66
2022/05/16 10:05:32;;;;;;;4.57;1.65;;;;;;;;;;5029607;28;20107;-66
2022/05/16 10:08:11;;;;;;;5.45;1.55;;;;;;;;;;5029159;28;20041;-66
2022/05/16 10:10:43;;;;;;;5.00;1.45;;;;;;;;;;4980353;28;20057;-66
2022/05/16 10:13:16;;;;;;;5.22;1.90;;;;;;;;;;5029005;28;20049;-65
2022/05/16 10:15:50;;;;;;;4.40;1.77;;;;;;;;;;5029114;28;20045;-65
2022/05/16 10:18:23;;;;;;;4.40;2.03;;;;;;;;;;5028920;28;20053;-65
2022/05/16 10:21:03;;;;;;;2.78;1.38;;;;;;;;;;5057087;28;20052;-65
2022/05/16 10:23:41;;;;;;;4.70;1.70;;;;;;;;;;5053210;28;20060;-65
2022/05/16 10:26:24;;;;;;;5.57;1.50;;;;;;;;;;5068692;28;20555;-66
2022/05/16 10:28:59;;;;;;;4.60;1.77;;;;;;;;;;5068813;28;20040;-66
2022/05/16 10:35:07;;;;;;;5.13;1.95;;;;;;;;;;5068809;28;20072;-65
2022/05/16 10:37:43;;;;;;;5.10;1.40;;;;;;;;;;5056592;28;20056;-65
2022/05/16 10:40:30;;;;;;;5.70;1.92;;;;;;;;;;5053209;28;20053;-65
2022/05/16 10:43:19;;;;;;;2.83;1.40;;;;;;;;;;5050948;28;20056;-65
2022/05/16 10:46:11;;;;;;;4.03;1.65;;;;;;;;;;5050695;28;20386;-64
2022/05/16 10:49:16;;;;;;;4.22;1.50;;;;;;;;;;5032047;28;20529;-65
2022/05/16 10:52:13;;;;;;;4.05;1.63;;;;;;;;;;5028483;28;20061;-64
2022/05/16 10:54:44;;;;;;;4.63;1.00;;;;;;;;;;4956657;28;20474;-64
2022/05/16 10:57:17;;;;;;;2.70;1.20;;;;;;;;;;4988821;28;20046;-64
2022/05/16 11:00:00;;;;;;;3.55;1.23;;;;;;;;;;5004976;28;20136;-63
2022/05/16 11:02:42;;;;;;;4.93;1.48;;;;;;;;;;4973212;28;20502;-64
2022/05/16 11:05:22;;;;;;;3.92;1.63;;;;;;;;;;4990173;28;20541;-64
2022/05/16 11:08:14;;;;;;;5.45;2.47;;;;;;;;;;4976106;28;20053;-64
2022/05/16 11:11:25;;;;;;;4.25;1.70;;;;;;;;;;4976151;28;20057;-64
2022/05/16 11:14:05;;;;;;;2.90;1.20;;;;;;;;;;4992389;28;20061;-64
2022/05/16 11:16:41;;;;;;;7.13;2.72;;;;;;;;;;4991317;28;20105;-65
2022/05/16 11:19:21;;;;;;;2.55;0.98;;;;;;;;;;4947508;28;20050;-65
2022/05/16 11:22:01;;;;;;;3.28;1.30;;;;;;;;;;4949552;29;20051;-64
2022/05/16 11:24:48;;;;;;;4.40;1.50;;;;;;;;;;4950311;29;20062;-64
2022/05/16 11:27:49;;;;;;;2.17;0.60;;;;;;;;;;4950201;29;20066;-65
2022/05/16 11:30:35;;;;;;;2.10;0.75;;;;;;;;;;4978501;28;20050;-64
2022/05/16 11:33:32;;;;;;;2.08;1.13;;;;;;;;;;4902060;29;20043;-64
2022/05/16 11:36:26;;;;;;;2.97;1.50;;;;;;;;;;4930731;29;20070;-64
2022/05/16 11:39:28;;;;;;;2.65;1.15;;;;;;;;;;4874085;29;20057;-67
2022/05/16 11:42:08;;;;;;;2.60;1.10;;;;;;;;;;4819172;29;20058;-65
2022/05/16 11:44:59;;;;;;;2.60;0.98;;;;;;;;;;4819385;29;20552;-65
2022/05/16 11:48:11;;;;;;;5.90;1.20;;;;;;;;;;4817493;29;20058;-66
2022/05/16 11:51:14;;;;;;;4.88;1.20;;;;;;;;;;4817522;29;20058;-65
2022/05/16 11:53:50;;;;;;;4.35;1.02;;;;;;;;;;4820666;29;20062;-65
2022/05/16 12:02:34;;;;;;;3.70;1.25;;;;;;;;;;4893153;29;20059;-65
2022/05/16 12:05:20;;;;;;;3.78;1.00;;;;;;;;;;4848231;29;20060;-65
2022/05/16 12:08:20;;;;;;;1.70;1.10;;;;;;;;;;4831073;29;20411;-65
2022/05/16 12:11:03;;;;;;;4.28;0.82;;;;;;;;;;4825779;29;20050;-65
2022/05/16 12:14:11;;;;;;;5.07;1.33;;;;;;;;;;4824281;29;20054;-65
2022/05/16 12:17:17;;;;;;;1.55;0.60;;;;;;;;;;4883482;29;20064;-65
2022/05/16 12:19:53;;;;;;;2.00;0.70;;;;;;;;;;4912634;29;20052;-65
2022/05/16 12:23:49;;;;;;;1.70;0.70;;;;;;;;;;5010042;27;2562226;-64
2022/05/16 12:26:31;;;;;;;1.67;0.63;;;;;;;;;;5081282;28;20063;-63
2022/05/16 12:29:10;;;;;;;2.38;0.40;;;;;;;;;;5089998;28;20119;-65
2022/05/16 12:31:50;;;;;;;1.42;0.63;;;;;;;;;;5088315;28;20041;-63
2022/05/16 12:34:30;;;;;;;1.65;0.52;;;;;;;;;;5070346;28;21446;-65
2022/05/16 12:37:09;;;;;;;2.13;0.43;;;;;;;;;;5088821;28;20157;-65
2022/05/16 12:39:52;;;;;;;1.35;0.40;;;;;;;;;;5053592;28;20052;-65
2022/05/16 12:42:57;;;;;;;1.60;0.82;;;;;;;;;;5089021;28;20044;-63
2022/05/16 12:45:54;;;;;;;0.50;0.32;;;;;;;;;;5066168;28;20057;-66
2022/05/16 12:48:45;;;;;;;;;;;;;;;;;;5033339;28;20068;-63
2022/05/16 12:51:31;;;;;;;;;;;;;;;;;;5046161;28;19921;-66
2022/05/16 12:54:17;;;;;;;3.17;0.82;;;;;;;;;;5046373;28;20356;-65
2022/05/16 12:56:53;;;;;;;1.77;0.75;;;;;;;;;;5025878;28;20060;-63
2022/05/16 12:59:41;;;;;;;2.45;0.80;;;;;;;;;;5026237;28;20062;-63
2022/05/16 13:02:21;;;;;;;3.78;2.03;;;;;;;;;;5026033;28;20064;-64
2022/05/16 13:04:59;;;;;;;4.10;1.75;;;;;;;;;;5025935;28;20446;-63
2022/05/16 13:07:43;;;;;;;14.35;5.40;;;;;;;;;;4986501;28;20069;-63
2022/05/16 13:10:51;;;;;;;3.88;1.15;;;;;;;;;;4968658;28;20062;-63
2022/05/16 13:13:47;;;;;;;25.67;11.88;;;;;;;;;;4967275;28;20064;-64
2022/05/16 13:16:31;;;;;;;6.38;2.33;;;;;;;;;;5002721;28;20061;-64
2022/05/16 13:19:17;;;;;;;4.72;1.52;;;;;;;;;;4994960;28;20054;-64
2022/05/16 13:22:01;;;;;;;15.65;7.90;;;;;;;;;;4986455;28;20047;-64
2022/05/16 13:24:32;;;;;;;5.63;2.53;;;;;;;;;;5010832;28;20057;-64
2022/05/16 13:30:14;;;;;;;1.13;0.40;;;;;;;;;;4966887;28;20070;-64
2022/05/16 13:32:46;;;;;;;0.82;0.30;;;;;;;;;;4963588;28;20063;-64
2022/05/16 13:35:37;;;;;;;0.98;0.40;;;;;;;;;;4976603;28;20062;-64
2022/05/16 13:38:09;;;;;;;3.17;0.50;;;;;;;;;;4953706;29;20066;-64
2022/05/16 13:40:45;;;;;;;1.30;0.38;;;;;;;;;;4954137;29;20062;-65
2022/05/16 13:43:24;;;;;;;1.50;0.50;;;;;;;;;;4937838;29;20496;-65
2022/05/16 13:46:08;;;;;;;2.70;0.60;;;;;;;;;;4934571;29;20055;-65
2022/05/16 13:48:42;;;;;;;1.83;0.90;;;;;;;;;;4949474;29;20055;-64
2022/05/16 13:51:15;;;;;;;0.77;0.45;;;;;;;;;;4950273;29;20194;-63
2022/05/16 13:53:46;;;;;;;3.33;0.47;;;;;;;;;;4950058;29;20447;-64
2022/05/16 13:56:16;;;;;;;3.53;0.70;;;;;;;;;;4956570;28;20115;-64
2022/05/16 13:58:47;;;;;;;0.90;0.43;;;;;;;;;;4982681;28;20055;-64
2022/05/16 14:01:21;;;;;;;1.48;0.50;;;;;;;;;;4976228;28;20051;-64
2022/05/16 14:03:56;;;;;;;3.25;0.50;;;;;;;;;;4989635;28;20064;-63
2022/05/16 14:06:47;;;;;;;0.98;0.40;;;;;;;;;;5014879;28;20064;-63
2022/05/16 14:09:28;;;;;;;2.45;1.10;;;;;;;;;;4983830;28;20064;-64
2022/05/16 14:11:59;;;;;;;0.82;0.40;;;;;;;;;;4992032;28;20514;-63
2022/05/16 14:14:30;;;;;;;1.85;1.15;;;;;;;;;;4992292;28;20057;-64
2022/05/16 14:17:04;;;;;;;0.90;0.35;;;;;;;;;;4975147;28;20046;-63
2022/05/16 14:19:46;;;;;;;0.95;0.40;;;;;;;;;;4992262;28;20551;-65
2022/05/16 14:22:32;;;;;;;1.05;0.30;;;;;;;;;;5013582;28;20057;-63
2022/05/16 14:25:07;;;;;;;;;;;;;;;;;;5050963;28;20041;-63
2022/05/16 14:27:42;;;;;;;1.23;0.50;;;;;;;;;;5050841;28;19920;-65
2022/05/16 14:30:22;;;;;;;0.60;0.30;;;;;;;;;;4984654;28;20041;-66
2022/05/16 14:33:27;;;;;;;1.83;0.52;;;;;;;;;;5051066;28;20061;-65
2022/05/16 14:36:04;;;;;;;0.40;0.30;;;;;;;;;;5011313;28;20064;-64
2022/05/16 14:39:02;;;;;;;1.33;0.45;;;;;;;;;;4953068;28;20067;-65
2022/05/16 14:41:50;;;;;;;0.75;0.40;;;;;;;;;;4953127;29;20071;-65
2022/05/16 14:44:31;;;;;;;0.68;0.47;;;;;;;;;;4938612;29;20468;-65
2022/05/16 14:47:14;;;;;;;1.35;0.50;;;;;;;;;;4933750;29;20056;-65
2022/05/16 14:49:45;;;;;;;3.05;1.13;;;;;;;;;;4923205;29;20067;-64
2022/05/16 14:52:22;;;;;;;2.17;0.60;;;;;;;;;;4914766;29;20063;-65
2022/05/16 14:55:02;;;;;;;1.33;0.40;;;;;;;;;;4914806;29;20547;-64
2022/05/16 14:57:33;;;;;;;0.93;0.43;;;;;;;;;;4914734;29;20841;-64
2022/05/16 15:00:06;;;;;;;1.33;0.60;;;;;;;;;;4914323;29;20056;-64
2022/05/16 15:05:26;;;;;;;5.28;1.20;;;;;;;;;;4867938;29;20056;-63
2022/05/16 15:07:57;;;;;;;2.05;1.00;;;;;;;;;;4914375;29;20393;-62
2022/05/16 15:10:28;;;;;;;2.25;0.30;;;;;;;;;;4914469;29;20433;-64
2022/05/16 15:12:58;;;;;;;1.45;0.70;;;;;;;;;;4941847;29;20062;-62
2022/05/16 15:15:29;;;;;;;0.93;0.45;;;;;;;;;;4956561;28;20459;-64
2022/05/16 15:18:00;;;;;;;2.38;0.45;;;;;;;;;;5010380;28;20054;-65
2022/05/16 15:20:30;;;;;;;7.72;1.70;;;;;;;;;;5010586;28;20061;-65
2022/05/16 15:23:02;;;;;;;1.38;0.70;;;;;;;;;;4990339;28;20136;-64
2022/05/16 15:25:33;;;;;;;3.67;1.13;;;;;;;;;;4951769;29;20067;-63
2022/05/16 15:28:05;;;;;;;1.10;0.52;;;;;;;;;;4951928;29;20419;-62
2022/05/16 15:30:39;;;;;;;5.97;1.88;;;;;;;;;;4952247;29;20107;-62
2022/05/16 15:33:13;;;;;;;6.03;2.53;;;;;;;;;;4951934;29;20075;-63
2022/05/16 15:35:46;;;;;;;2.80;1.10;;;;;;;;;;4952027;29;20059;-64
2022/05/16 15:38:19;;;;;;;1.92;0.73;;;;;;;;;;4951909;29;20059;-62
2022/05/16 15:40:51;;;;;;;2.58;1.25;;;;;;;;;;4966403;28;20059;-63
2022/05/16 15:43:22;;;;;;;1.25;0.50;;;;;;;;;;4987104;28;20510;-62
2022/05/16 15:45:53;;;;;;;0.98;0.50;;;;;;;;;;4971223;28;20090;-62
2022/05/16 15:48:24;;;;;;;2.55;0.52;;;;;;;;;;4971134;28;20055;-62
2022/05/16 15:50:55;;;;;;;1.35;0.50;;;;;;;;;;4971086;28;20073;-62
2022/05/16 15:53:27;;;;;;;1.13;0.40;;;;;;;;;;4971005;28;20529;-62
2022/05/16 15:55:58;;;;;;;1.38;0.47;;;;;;;;;;4986497;28;20050;-64
2022/05/16 15:58:29;;;;;;;3.83;1.02;;;;;;;;;;4970839;28;20210;-62
2022/05/16 16:01:01;;;;;;;1.85;0.57;;;;;;;;;;4983687;28;20062;-62
2022/05/16 16:09:17;;;;;;;2.78;0.55;;;;;;;;;;5009529;28;20061;-64
2022/05/16 16:11:49;;;;;;;1.65;0.50;;;;;;;;;;4989634;28;20147;-64
2022/05/16 16:14:20;;;;;;;1.50;0.70;;;;;;;;;;4966910;28;20407;-64
2022/05/16 16:16:51;;;;;;;3.47;0.30;;;;;;;;;;4951614;29;20503;-64
2022/05/16 16:19:28;;;;;;;0.70;0.50;;;;;;;;;;4966646;28;20059;-64
2022/05/16 16:21:59;;;;;;;1.52;0.43;;;;;;;;;;4951162;28;20055;-61